地図

経路データ

SID SEASON NUMBER BASIN SUBBASIN NAME ISO_TIME NATURE LAT LON WMO_WIND WMO_PRES WMO_AGENCY TRACK_TYPE DIST2LAND LANDFALL IFLAG USA_AGENCY USA_ATCF_ID USA_LAT USA_LON USA_RECORD USA_STATUS USA_WIND USA_PRES USA_SSHS USA_R34_NE USA_R34_SE USA_R34_SW USA_R34_NW USA_R50_NE USA_R50_SE USA_R50_SW USA_R50_NW USA_R64_NE USA_R64_SE USA_R64_SW USA_R64_NW USA_POCI USA_ROCI USA_RMW USA_EYE TOKYO_LAT TOKYO_LON TOKYO_GRADE TOKYO_WIND TOKYO_PRES TOKYO_R50_DIR TOKYO_R50_LONG TOKYO_R50_SHORT TOKYO_R30_DIR TOKYO_R30_LONG TOKYO_R30_SHORT TOKYO_LAND CMA_LAT CMA_LON CMA_CAT CMA_WIND CMA_PRES HKO_LAT HKO_LON HKO_CAT HKO_WIND HKO_PRES NEWDELHI_LAT NEWDELHI_LON NEWDELHI_GRADE NEWDELHI_WIND NEWDELHI_PRES NEWDELHI_CI NEWDELHI_DP NEWDELHI_POCI REUNION_LAT REUNION_LON REUNION_TYPE REUNION_WIND REUNION_PRES REUNION_TNUM REUNION_CI REUNION_RMW REUNION_R34_NE REUNION_R34_SE REUNION_R34_SW REUNION_R34_NW REUNION_R50_NE REUNION_R50_SE REUNION_R50_SW REUNION_R50_NW REUNION_R64_NE REUNION_R64_SE REUNION_R64_SW REUNION_R64_NW BOM_LAT BOM_LON BOM_TYPE BOM_WIND BOM_PRES BOM_TNUM BOM_CI BOM_RMW BOM_R34_NE BOM_R34_SE BOM_R34_SW BOM_R34_NW BOM_R50_NE BOM_R50_SE BOM_R50_SW BOM_R50_NW BOM_R64_NE BOM_R64_SE BOM_R64_SW BOM_R64_NW BOM_ROCI BOM_POCI BOM_EYE BOM_POS_METHOD BOM_PRES_METHOD NADI_LAT NADI_LON NADI_CAT NADI_WIND NADI_PRES WELLINGTON_LAT WELLINGTON_LON WELLINGTON_WIND WELLINGTON_PRES DS824_LAT DS824_LON DS824_STAGE DS824_WIND DS824_PRES TD9636_LAT TD9636_LON TD9636_STAGE TD9636_WIND TD9636_PRES TD9635_LAT TD9635_LON TD9635_WIND TD9635_PRES TD9635_ROCI NEUMANN_LAT NEUMANN_LON NEUMANN_CLASS NEUMANN_WIND NEUMANN_PRES MLC_LAT MLC_LON MLC_CLASS MLC_WIND MLC_PRES USA_GUST BOM_GUST BOM_GUST_PER REUNION_GUST REUNION_GUST_PER USA_SEAHGT USA_SEARAD_NE USA_SEARAD_SE USA_SEARAD_SW USA_SEARAD_NW STORM_SPEED STORM_DIR
1965352N09111 1965 121 WP MM GLORIA 1965-12-18 06:00:00 TS 8.60000 110.775 main 370 329 O_O______O_O__ jtwc_wp WP351965 7.80000 110.200 30 -1 11.0000 112.500 0 1008 7.80000 110.200 TC 30 7.80000 110.200 30 1007 240 11 287
1965352N09111 1965 121 WP MM GLORIA 1965-12-18 09:00:00 TS 8.75702 110.269 main 320 277 P_P______P_P__ WP351965 8.14250 109.833 30 -1 10.6006 111.577 0 1006 8.14250 109.833 TC 30 8.14250 109.833 30 1006 210 10 288
1965352N09111 1965 121 WP MM GLORIA 1965-12-18 12:00:00 TS 8.91428 109.814 main 277 246 O_OO_____OOO__ jtwc_wp WP351965 8.40000 109.400 30 -1 10.2000 110.700 0 1005 8.90000 110.100 TD 25 1008 8.40000 109.400 TC 30 9.70000 110.600 1 8.40000 109.400 30 1006 180 10 280
1965352N09111 1965 121 WP MM GLORIA 1965-12-18 15:00:00 TS 8.92518 109.310 main 246 224 P_PP_____PPP__ WP351965 8.51004 108.865 32 -1 9.79981 109.905 0 1005 8.89991 109.707 TD 25 1008 8.51004 108.865 TC 32 9.69201 110.390 1 8.51004 108.865 32 1005 180 10 268
1965352N09111 1965 121 WP MM GLORIA 1965-12-18 18:00:00 TS 8.88008 108.838 main 219 215 O_OO_____OPO__ jtwc_wp WP351965 8.50000 108.300 35 0 9.40000 109.200 0 1005 8.90000 109.200 TD 25 1008 8.50000 108.300 TC 35 9.68722 110.145 1 8.50000 108.300 35 1005 180 9 262
1965352N09111 1965 121 WP MM GLORIA 1965-12-18 21:00:00 TS 8.79228 108.379 main 216 181 P_PP_____PPP__ WP351965 8.39991 107.792 35 0 8.97739 108.555 0 1005 8.88767 108.515 TD 27 1007 8.39991 107.792 TC 35 9.68887 109.827 1 8.39991 107.792 35 1004 180 10 258
1965352N09111 1965 121 WP MM GLORIA 1965-12-19 00:00:00 TS 8.66667 107.850 main 181 141 O_OO_____OOO__ jtwc_wp WP351965 8.30000 107.300 35 0 8.60000 108.000 0 1006 8.80000 107.800 TD 30 1006 8.30000 107.300 TC 35 9.70000 109.400 1 8.30000 107.300 35 1004 180 11 261
1965352N09111 1965 121 WP MM GLORIA 1965-12-19 03:00:00 TS 8.61772 107.305 main 141 109 P_PP_____PPP__ WP351965 8.37257 106.755 37 0 8.30489 107.520 0 1006 8.56490 107.205 TD 32 1005 8.37257 106.755 TC 37 9.71882 108.840 1 8.37257 106.755 37 1003 180 10 264
1965352N09111 1965 121 WP MM GLORIA 1965-12-19 06:00:00 TS 8.55416 106.811 main 109 109 O_OO_____OPO__ jtwc_wp WP351965 8.40000 106.300 40 0 8.10000 107.100 1 29 1006 8.30000 106.700 TS 35 1004 8.40000 106.300 TC 40 9.72498 108.166 1 8.40000 106.300 40 1003 180 9 254
1965352N09111 1965 121 WP MM GLORIA 1965-12-19 09:00:00 TS 8.38457 106.464 main 120 110 P_PP_____PPP__ WP351965 8.17224 106.115 40 0 7.96978 106.738 1 29 1005 8.12734 106.293 TS 35 1004 8.17224 106.115 TC 40 9.69359 107.409 1 8.17224 106.115 40 1003 180 8 244
1965352N09111 1965 121 WP MM GLORIA 1965-12-19 12:00:00 TS 8.20000 106.083 main 110 81 O_OO_____OOO__ jtwc_wp WP351965 7.90000 105.900 40 0 7.90000 106.300 1 29 1004 8.00000 105.900 TS 35 1004 7.90000 105.900 TC 40 9.60000 106.600 1 7.90000 105.900 40 1003 180 10 253
1965352N09111 1965 121 WP MM GLORIA 1965-12-19 15:00:00 TS 8.07936 105.473 main 81 78 P_PP_____PPP__ WP351965 7.77761 105.360 37 0 7.85011 105.638 1 29 1005 7.87749 105.415 TS 35 1004 7.77761 105.360 TC 37 9.41573 105.707 1 7.77761 105.360 37 1003 180 13 260
1965352N09111 1965 121 WP MM GLORIA 1965-12-19 18:00:00 TS 7.97817 104.781 main 79 79 O_OO_____OPO__ jtwc_wp WP351965 7.70000 104.700 35 0 7.80000 104.900 1 29 1006 7.80000 104.900 TS 35 1004 7.70000 104.700 TC 35 9.16903 104.786 1 7.70000 104.700 35 1004 180 13 261
1965352N09111 1965 121 WP MM GLORIA 1965-12-19 21:00:00 TS 7.86579 104.142 main 125 125 P_PP_____PPP__ WP351965 7.60742 104.100 35 0 7.69993 104.227 1 1007 7.78494 104.400 TS 32 1005 7.60742 104.100 TC 35 8.88761 103.923 1 7.60742 104.100 35 1004 180 13 260
1965352N09111 1965 121 WP MM GLORIA 1965-12-20 00:00:00 TS 7.75000 103.533 main 181 178 O_OO_____OOO__ jtwc_wp WP351965 7.50000 103.500 35 0 7.60000 103.600 0 1008 7.80000 103.900 TD 30 1006 7.50000 103.500 TC 35 8.60000 103.200 1 7.50000 103.500 35 1005 180 12 258
1965352N09111 1965 121 WP MM GLORIA 1965-12-20 03:00:00 TS 7.61909 102.966 main 178 126 P_PP_____PPP__ WP351965 7.34253 102.870 32 -1 7.53490 103.028 0 1008 7.80741 103.408 TD 30 1006 7.34253 102.870 TC 32 8.34468 102.749 1 7.34253 102.870 32 1005 150 11 257
1965352N09111 1965 121 WP MM GLORIA 1965-12-20 06:00:00 TS 7.49850 102.456 main 126 80 O_OO_____OPO__ jtwc_wp WP351965 7.20000 102.300 30 -1 7.50000 102.500 0 1008 7.80000 102.900 TD 30 1006 7.20000 102.300 TC 30 8.09099 102.439 1 7.20000 102.300 30 1005 120 10 258
1965352N09111 1965 121 WP MM GLORIA 1965-12-20 09:00:00 TS 7.41234 102.014 main 80 56 P_PP_____PPP__ WP351965 7.12739 101.863 30 -1 7.50000 101.963 0 1008 7.74999 102.350 TD 27 1007 7.12739 101.863 TC 30 7.84187 102.184 1 7.12739 101.863 30 1005 120 9 259
1965352N09111 1965 121 WP MM GLORIA 1965-12-20 12:00:00 TS 7.33478 101.609 main 56 55 O_OO_____OOO__ jtwc_wp WP351965 7.10000 101.500 30 -1 7.50000 101.500 0 1008 7.70000 101.800 TD 25 1008 7.10000 101.500 TC 30 7.60000 101.900 1 7.10000 101.500 30 1006 120 8 259
1965352N09111 1965 121 WP MM GLORIA 1965-12-20 15:00:00 TS 7.25623 101.234 main 49 24 P_PP_____PPP__ WP351965 7.08496 101.143 30 -1 7.47987 101.185 0 1008 7.68758 101.288 TD 25 1008 7.08496 101.143 TC 30 7.33075 101.529 1 7.08496 101.143 30 1006 120 7 258
1965352N09111 1965 121 WP MM GLORIA 1965-12-20 18:00:00 TS 7.18216 100.890 main 24 0 O_OO_____OPO__ jtwc_wp WP351965 7.10000 100.800 30 -1 7.40000 100.900 0 1008 7.70000 100.800 TD 25 1008 7.10000 100.800 TC 30 7.07417 101.107 1 7.10000 100.800 30 1007 120 7 255
1965352N09111 1965 121 WP MM GLORIA 1965-12-20 21:00:00 TS 7.06107 100.517 main 0 0 P_P______PPP__ WP351965 7.14256 100.453 30 -1 7.22764 100.530 0 1008 TD 7.14256 100.453 TC 30 6.85555 100.607 1 7.14256 100.453 30 1007 120 9 253
1965352N09111 1965 121 WP MM GLORIA 1965-12-21 00:00:00 TS 6.92500 100.050 main 0 0 O_O______OOO__ jtwc_wp WP351965 7.20000 100.100 30 -1 7.00000 100.100 0 1008 7.20000 100.100 TC 30 6.70000 100.000 1 7.20000 100.100 30 1007 120 13 249
1965352N09111 1965 121 NI BB GLORIA 1965-12-21 03:00:00 NR 6.59448 99.2978 main 55 55 __________P___ WP351965 -1 0 TC 6.59448 99.2978 1 16 257
1965352N09111 1965 121 NI BB GLORIA 1965-12-21 06:00:00 NR 6.55705 98.4863 main 126 126 __________P___ -1 6.55705 98.4863 1 17 270
1965352N09111 1965 121 NI BB GLORIA 1965-12-21 09:00:00 NR 6.59108 97.5818 main 156 156 __________P___ -1 6.59108 97.5818 1 19 274
1965352N09111 1965 121 NI BB GLORIA 1965-12-21 12:00:00 NR 6.70000 96.6000 main 155 138 __________O___ -1 6.70000 96.6000 1 22 278
1965352N09111 1965 121 NI BB GLORIA 1965-12-21 15:00:00 NR 6.91257 95.4074 main 145 145 __________P___ -1 6.91257 95.4074 1 25 281
1965352N09111 1965 121 NI BB GLORIA 1965-12-21 18:00:00 NR 7.18792 94.1700 main 210 210 __________P___ -1 7.18792 94.1700 1 24 283
1965352N09111 1965 121 NI BB GLORIA 1965-12-21 21:00:00 NR 7.46894 93.0474 main 323 323 __________P___ -1 7.46894 93.0474 1 20 285
1965352N09111 1965 121 NI BB GLORIA 1965-12-22 00:00:00 NR 7.70000 92.2000 main 406 406 __________O___ -1 7.70000 92.2000 1 12 286
1965352N09111 1965 121 NI BB GLORIA 1965-12-22 03:00:00 NR 7.80976 91.8381 main 449 449 __________P___ -1 7.80976 91.8381 1 5 291
1965352N09111 1965 121 NI BB GLORIA 1965-12-22 06:00:00 NR 7.86554 91.7571 main 455 455 __________P___ -1 7.86554 91.7571 1 1 355
1965352N09111 1965 121 NI BB GLORIA 1965-12-22 09:00:00 NR 7.88862 91.8226 main 455 446 __________P___ -1 7.88862 91.8226 1 1 77
1965352N09111 1965 121 NI BB GLORIA 1965-12-22 12:00:00 NR 7.90000 91.9000 main 446 446 __________O___ -1 7.90000 91.9000 1 1 66
1965352N09111 1965 121 NI BB GLORIA 1965-12-22 15:00:00 NR 7.91686 91.8824 main 446 446 __________P___ -1 7.91686 91.8824 1 1 288
1965352N09111 1965 121 NI BB GLORIA 1965-12-22 18:00:00 NR 7.94075 91.7727 main 455 455 __________P___ -1 7.94075 91.7727 1 3 281
1965352N09111 1965 121 NI BB GLORIA 1965-12-22 21:00:00 NR 7.96926 91.6017 main 480 480 __________P___ -1 7.96926 91.6017 1 4 279
1965352N09111 1965 121 NI BB GLORIA 1965-12-23 00:00:00 NR 8.00000 91.4000 main 498 __________O___ -1 8.00000 91.4000 1 4 279

デジタル台風データ・検索

IBTrACS Databaseについて

本データベースは、米国NOAAが公開する1842年以降の世界の熱帯低気圧のベストトラックデータアーカイブInternational Best Track Archive for Climate Stewardship (IBTrACS)を、ウェブで閲覧しやすい形式に変換したものです。

最終更新日:2021-10-27